Bemis Heights, New York
Current Conditions -  °F | °C
As of 10:51 PM on Wednesday 28 Jan 2015 (Local Time) from KALB Reporting Station
Clear Clear  
Wind Chill: -14°   Ceiling: Unl
Heat Index: -14°   Visibility: 10mi
Dew Point: -19°   Wind: 0mph
Humidity: 67%   Direction: NA
Pressure: 30.31"   Gusts: NA
Location:  43.0236°N, 73.676°W
Report Text: KALB 290351Z 00000KT 10SM CLR M14/M19 A3031 RMK AO2 SLP271 T11441194
Loading
Personal Weather Stations






























Interactive Weather Map New forecast layout! Learn more

10-Day Weather Forecast

Advertisements
Track Severe Weather on mobile